createdAt,value
2018-01-20T00:01:33.774Z,81.00
2018-01-20T00:04:02.069Z,81.40
2018-01-20T00:06:29.657Z,81.40
2018-01-20T00:08:57.278Z,81.70
2018-01-20T00:11:37.452Z,80.70
2018-01-20T00:14:04.966Z,80.70
2018-01-20T00:16:32.465Z,80.70
2018-01-20T00:19:00.736Z,80.50
2018-01-20T00:21:29.009Z,80.20
2018-01-20T00:23:56.505Z,80.80
2018-01-20T00:26:29.745Z,80.20
2018-01-20T00:28:57.253Z,79.30
2018-01-20T00:31:25.572Z,78.70
2018-01-20T00:33:53.086Z,78.60
2018-01-20T00:36:21.337Z,78.30
2018-01-20T00:38:48.876Z,78.30
2018-01-20T00:41:16.388Z,77.90
2018-01-20T00:43:44.659Z,78.00
2018-01-20T00:46:12.173Z,77.90
2018-01-20T00:48:39.670Z,78.20
2018-01-20T00:51:07.206Z,78.80
2018-01-20T00:53:35.580Z,78.70
2018-01-20T00:56:03.104Z,78.50
2018-01-20T00:58:31.356Z,78.30
2018-01-20T01:00:58.964Z,78.10
2018-01-20T01:03:26.472Z,78.30
2018-01-20T01:05:53.982Z,78.10
2018-01-20T01:08:22.238Z,78.80
2018-01-20T01:10:49.745Z,78.80
2018-01-20T01:13:17.228Z,79.10
2018-01-20T01:15:44.709Z,79.00
2018-01-20T01:18:12.210Z,79.60
2018-01-20T01:20:40.616Z,80.10
2018-01-20T01:23:08.908Z,79.70
2018-01-20T01:25:36.406Z,79.70
2018-01-20T01:28:03.941Z,79.20
2018-01-20T01:30:31.447Z,79.20
2018-01-20T01:32:59.206Z,79.50
2018-01-20T01:35:27.244Z,79.70
2018-01-20T01:37:54.747Z,80.00
2018-01-20T01:40:22.244Z,79.90
2018-01-20T01:42:50.496Z,79.60
2018-01-20T01:45:17.992Z,79.60
2018-01-20T01:47:46.244Z,80.00
2018-01-20T01:50:13.759Z,79.90
2018-01-20T01:52:42.061Z,78.80
2018-01-20T01:55:09.602Z,79.30
2018-01-20T01:57:37.124Z,78.90
2018-01-20T02:00:04.637Z,78.20
2018-01-20T02:02:32.126Z,78.40
2018-01-20T02:04:59.623Z,78.70
2018-01-20T02:07:27.873Z,78.00
2018-01-20T02:09:55.353Z,78.00
2018-01-20T02:12:23.613Z,77.60
2018-01-20T02:14:51.862Z,77.60
2018-01-20T02:17:19.361Z,77.50
2018-01-20T02:19:46.848Z,77.40
2018-01-20T02:22:15.134Z,77.60
2018-01-20T02:24:43.408Z,77.10
2018-01-20T02:27:10.916Z,77.30
2018-01-20T02:29:38.406Z,77.50
2018-01-20T02:32:05.935Z,77.90
2018-01-20T02:34:33.435Z,78.10
2018-01-20T02:37:00.937Z,77.60
2018-01-20T02:39:29.188Z,78.00
2018-01-20T02:41:56.717Z,78.00
2018-01-20T02:44:24.192Z,77.60
2018-01-20T02:46:51.683Z,77.30
2018-01-20T02:49:20.432Z,77.40
2018-01-20T02:51:47.917Z,77.90
2018-01-20T02:54:15.405Z,78.40
2018-01-20T02:56:43.705Z,78.60
2018-01-20T02:59:11.978Z,78.40
2018-01-20T03:01:41.017Z,78.00
2018-01-20T03:04:08.524Z,78.00
2018-01-20T03:06:36.044Z,77.90
2018-01-20T03:09:03.527Z,78.00
2018-01-20T03:11:32.184Z,78.50
2018-01-20T03:13:59.677Z,78.90
2018-01-20T03:16:27.169Z,79.00
2018-01-20T03:18:54.750Z,78.80
2018-01-20T03:21:23.029Z,78.40
2018-01-20T03:23:51.287Z,78.50
2018-01-20T03:26:19.550Z,78.70
2018-01-20T03:28:47.065Z,78.70
2018-01-20T03:31:15.322Z,78.80
2018-01-20T03:33:42.820Z,78.80
2018-01-20T03:36:10.337Z,79.10
2018-01-20T03:38:39.493Z,79.30
2018-01-20T03:41:08.568Z,79.30
2018-01-20T03:43:36.843Z,78.80
2018-01-20T03:46:05.096Z,79.00
2018-01-20T03:48:32.597Z,78.90
2018-01-20T03:51:00.093Z,79.00
2018-01-20T03:53:27.611Z,78.80
2018-01-20T03:55:55.889Z,79.50
2018-01-20T03:58:24.153Z,79.50
2018-01-20T04:00:51.632Z,79.50
2018-01-20T04:03:20.420Z,79.50
2018-01-20T04:05:48.687Z,79.50
2018-01-20T04:08:16.183Z,79.50
2018-01-20T04:10:43.671Z,79.00
2018-01-20T04:13:11.207Z,79.10
2018-01-20T04:15:38.700Z,78.80
2018-01-20T04:18:06.192Z,78.70
2018-01-20T04:20:34.451Z,78.50
2018-01-20T04:23:01.951Z,78.50
2018-01-20T04:25:30.300Z,78.30
2018-01-20T04:27:57.811Z,78.90
2018-01-20T04:30:26.064Z,78.70
2018-01-20T04:32:54.428Z,78.70
2018-01-20T04:35:21.921Z,79.10
2018-01-20T04:37:49.423Z,79.10
2018-01-20T04:40:16.919Z,78.50
2018-01-20T04:42:44.442Z,78.50
2018-01-20T04:45:11.960Z,78.80
2018-01-20T04:47:45.960Z,78.50
2018-01-20T04:50:13.506Z,78.90
2018-01-20T04:52:41.028Z,78.90
2018-01-20T04:55:09.470Z,79.30
2018-01-20T04:57:43.890Z,79.20
2018-01-20T05:00:11.363Z,79.50
2018-01-20T05:02:38.872Z,79.00
2018-01-20T05:05:06.403Z,79.30
2018-01-20T05:07:34.681Z,80.00
2018-01-20T05:10:02.176Z,79.90
2018-01-20T05:12:29.700Z,80.30
2018-01-20T05:14:58.320Z,80.60
2018-01-20T05:17:26.597Z,81.10
2018-01-20T05:19:54.873Z,80.50
2018-01-20T05:22:23.126Z,80.70
2018-01-20T05:24:50.625Z,80.60
2018-01-20T05:27:18.872Z,80.60
2018-01-20T05:29:47.191Z,80.90
2018-01-20T05:32:15.452Z,81.20
2018-01-20T05:34:43.735Z,81.20
2018-01-20T05:37:12.014Z,80.60
2018-01-20T05:39:40.817Z,80.40
2018-01-20T05:42:09.082Z,79.80
2018-01-20T05:44:41.543Z,79.80
2018-01-20T05:47:09.025Z,79.80
2018-01-20T05:49:37.296Z,79.80
2018-01-20T05:52:04.788Z,79.70
2018-01-20T05:54:32.311Z,79.80
2018-01-20T05:56:59.801Z,80.20
2018-01-20T05:59:28.078Z,80.00
2018-01-20T06:01:56.341Z,80.40
2018-01-20T06:04:26.924Z,79.70
2018-01-20T06:06:54.981Z,79.70
2018-01-20T06:09:23.246Z,80.10
2018-01-20T06:11:52.358Z,79.80
2018-01-20T06:14:20.617Z,79.90
2018-01-20T06:16:49.041Z,79.90
2018-01-20T06:19:17.319Z,80.20
2018-01-20T06:21:44.807Z,80.30
2018-01-20T06:24:12.309Z,79.90
2018-01-20T06:26:39.789Z,79.60
2018-01-20T06:29:08.739Z,80.00
2018-01-20T06:31:36.876Z,79.90
2018-01-20T06:34:05.287Z,79.90
2018-01-20T06:36:33.168Z,79.90
2018-01-20T06:39:00.673Z,79.60
2018-01-20T06:41:28.942Z,79.70
2018-01-20T06:43:57.226Z,79.90
2018-01-20T06:46:24.720Z,79.80
2018-01-20T06:48:52.200Z,79.90
2018-01-20T06:51:19.689Z,79.80
2018-01-20T06:53:47.186Z,79.70
2018-01-20T06:56:15.476Z,80.30
2018-01-20T06:58:43.753Z,80.20
2018-01-20T07:01:12.022Z,80.20
2018-01-20T07:03:39.499Z,80.20
2018-01-20T07:06:07.757Z,80.50
2018-01-20T07:08:35.244Z,80.50
2018-01-20T07:11:03.597Z,80.10
2018-01-20T07:13:31.068Z,80.10
2018-01-20T07:15:58.560Z,80.40
2018-01-20T07:18:26.052Z,80.50
2018-01-20T07:20:53.552Z,79.90
2018-01-20T07:23:21.041Z,80.00
2018-01-20T07:25:49.318Z,79.80
2018-01-20T07:28:17.579Z,79.20
2018-01-20T07:30:45.085Z,79.20
2018-01-20T07:33:13.270Z,79.50
2018-01-20T07:35:40.778Z,79.60
2018-01-20T07:38:08.269Z,79.50
2018-01-20T07:40:36.517Z,79.40
2018-01-20T07:43:04.017Z,79.40
2018-01-20T07:45:33.275Z,79.30
2018-01-20T07:48:01.562Z,79.40
2018-01-20T07:50:29.974Z,79.30
2018-01-20T07:52:58.246Z,80.00
2018-01-20T07:55:26.716Z,80.20
2018-01-20T07:57:54.205Z,80.10
2018-01-20T08:00:22.465Z,79.30
2018-01-20T08:02:49.976Z,79.30
2018-01-20T08:05:17.464Z,79.20
2018-01-20T08:07:44.969Z,79.00
2018-01-20T08:10:13.298Z,78.90
2018-01-20T08:12:40.795Z,78.80
2018-01-20T08:15:08.284Z,78.70
2018-01-20T08:17:37.376Z,78.00
2018-01-20T08:20:05.651Z,78.50
2018-01-20T08:22:33.940Z,78.30
2018-01-20T08:25:03.452Z,78.20
2018-01-20T08:27:31.757Z,78.30
2018-01-20T08:29:59.270Z,78.20
2018-01-20T08:32:27.092Z,78.10
2018-01-20T08:34:54.593Z,77.70
2018-01-20T08:37:22.089Z,77.40
2018-01-20T08:39:50.337Z,76.80
2018-01-20T08:42:17.837Z,76.60
2018-01-20T08:44:46.086Z,77.20
2018-01-20T08:47:14.727Z,77.20
2018-01-20T08:49:42.234Z,77.50
2018-01-20T08:52:09.759Z,77.40
2018-01-20T08:54:37.252Z,77.50
2018-01-20T08:57:04.747Z,77.20
2018-01-20T08:59:33.150Z,76.00
2018-01-20T09:02:01.402Z,76.20
2018-01-20T09:04:28.909Z,76.20
2018-01-20T09:06:56.926Z,76.00
2018-01-20T09:09:24.452Z,76.10
2018-01-20T09:11:51.991Z,76.30
2018-01-20T09:14:20.266Z,76.20
2018-01-20T09:16:48.537Z,76.40
2018-01-20T09:19:16.817Z,76.30
2018-01-20T09:21:45.090Z,76.50
2018-01-20T09:24:14.109Z,76.50
2018-01-20T09:26:43.092Z,76.60
2018-01-20T09:29:10.596Z,76.60
2018-01-20T09:31:38.077Z,77.00
2018-01-20T09:34:05.576Z,77.10
2018-01-20T09:36:36.990Z,77.60
2018-01-20T09:39:09.549Z,77.40
2018-01-20T09:41:37.202Z,77.00
2018-01-20T09:44:04.731Z,76.80
2018-01-20T09:46:32.229Z,76.60
2018-01-20T09:48:59.746Z,77.20
2018-01-20T09:51:27.218Z,77.40
2018-01-20T09:53:55.558Z,77.20
2018-01-20T09:56:23.126Z,77.10
2018-01-20T09:58:50.632Z,76.60
2018-01-20T10:01:18.913Z,77.40
2018-01-20T10:03:46.445Z,77.40
2018-01-20T10:06:13.971Z,77.70
2018-01-20T10:08:41.794Z,77.80
2018-01-20T10:11:09.671Z,77.70
2018-01-20T10:13:37.212Z,77.50
2018-01-20T10:16:05.536Z,75.10
2018-01-20T10:18:33.830Z,74.60
2018-01-20T10:21:02.090Z,74.20
2018-01-20T10:23:30.372Z,75.30
2018-01-20T10:25:59.757Z,75.70
2018-01-20T10:28:27.560Z,75.30
2018-01-20T10:30:55.800Z,74.90
2018-01-20T10:33:23.297Z,74.20
2018-01-20T10:35:51.663Z,74.20
2018-01-20T10:38:19.159Z,74.20
2018-01-20T10:40:47.676Z,73.70
2018-01-20T10:43:15.181Z,73.70
2018-01-20T10:45:42.710Z,74.00
2018-01-20T10:48:10.233Z,74.20
2018-01-20T10:50:38.514Z,73.70
2018-01-20T10:53:06.797Z,73.40
2018-01-20T10:55:35.064Z,72.80
2018-01-20T10:58:03.344Z,73.40
2018-01-20T11:00:31.634Z,74.30
2018-01-20T11:02:59.897Z,74.50
2018-01-20T11:05:28.233Z,74.40
2018-01-20T11:07:55.729Z,74.00
2018-01-20T11:10:23.250Z,74.30
2018-01-20T11:12:50.749Z,73.80
2018-01-20T11:15:19.136Z,74.30
2018-01-20T11:17:46.653Z,73.90
2018-01-20T11:20:14.157Z,73.10
2018-01-20T11:22:42.813Z,72.50
2018-01-20T11:25:10.335Z,72.90
2018-01-20T11:27:40.708Z,73.10
2018-01-20T11:30:08.214Z,73.10
2018-01-20T11:32:35.777Z,74.10
2018-01-20T11:35:03.274Z,72.40
2018-01-20T11:37:31.528Z,71.30
2018-01-20T11:40:02.084Z,71.30
2018-01-20T11:42:31.312Z,70.50
2018-01-20T11:44:58.873Z,70.40
2018-01-20T11:47:26.369Z,69.90
2018-01-20T11:49:53.923Z,70.90
2018-01-20T11:52:21.429Z,71.60
2018-01-20T11:54:49.720Z,71.90
2018-01-20T11:57:18.028Z,72.00
2018-01-20T11:59:45.838Z,72.00
2018-01-20T12:02:13.346Z,72.40
2018-01-20T12:04:40.841Z,73.20
2018-01-20T12:07:08.340Z,73.30
2018-01-20T12:09:35.842Z,74.00
2018-01-20T12:12:03.374Z,73.70
2018-01-20T12:14:31.649Z,74.20
2018-01-20T12:16:59.938Z,73.90
2018-01-20T12:19:28.205Z,74.80
2018-01-20T12:21:55.753Z,74.20
2018-01-20T12:24:23.240Z,74.20
2018-01-20T12:26:50.782Z,73.90
2018-01-20T12:29:18.272Z,73.50
2018-01-20T12:31:47.152Z,72.30
2018-01-20T12:34:14.632Z,72.30
2018-01-20T12:36:42.902Z,72.60
2018-01-20T12:39:11.172Z,72.80
2018-01-20T12:41:38.693Z,72.60
2018-01-20T12:44:06.195Z,72.50
2018-01-20T12:46:35.223Z,70.80
2018-01-20T12:49:03.501Z,71.20
2018-01-20T12:51:31.886Z,70.80
2018-01-20T12:54:00.152Z,70.90
2018-01-20T12:56:27.651Z,70.90
2018-01-20T12:58:55.140Z,70.80
2018-01-20T13:01:22.835Z,70.90
2018-01-20T13:03:50.393Z,70.40
2018-01-20T13:06:18.699Z,70.20
2018-01-20T13:08:46.961Z,70.20
2018-01-20T13:11:14.462Z,70.20
2018-01-20T13:13:42.724Z,70.00
2018-01-20T13:16:10.650Z,70.00
2018-01-20T13:18:38.186Z,69.70
2018-01-20T13:21:05.772Z,70.80
2018-01-20T13:23:33.255Z,70.80
2018-01-20T13:26:00.761Z,71.30
2018-01-20T13:28:29.017Z,70.90
2018-01-20T13:30:58.200Z,71.20
2018-01-20T13:33:25.714Z,71.00
2018-01-20T13:35:54.484Z,71.40
2018-01-20T13:38:22.753Z,72.70
2018-01-20T13:40:50.263Z,72.60
2018-01-20T13:43:18.474Z,72.60
2018-01-20T13:45:45.981Z,72.50
2018-01-20T13:48:15.227Z,71.20
2018-01-20T13:50:42.707Z,71.20
2018-01-20T13:53:11.140Z,71.00
2018-01-20T13:55:38.651Z,70.70
2018-01-20T13:58:06.177Z,71.00
2018-01-20T14:00:33.664Z,70.30
2018-01-20T14:03:01.192Z,69.60
2018-01-20T14:05:28.697Z,69.50
2018-01-20T14:07:56.205Z,69.80
2018-01-20T14:10:24.546Z,69.20
2018-01-20T14:12:52.047Z,69.20
2018-01-20T14:15:19.529Z,69.10
2018-01-20T14:17:47.028Z,68.60
2018-01-20T14:20:15.252Z,67.90
2018-01-20T14:22:44.687Z,68.10
2018-01-20T14:25:12.199Z,68.10
2018-01-20T14:27:39.699Z,67.80
2018-01-20T14:30:08.012Z,67.60
2018-01-20T14:32:35.529Z,67.50
2018-01-20T14:35:03.036Z,68.20
2018-01-20T14:37:30.561Z,69.10
2018-01-20T14:39:58.839Z,70.50
2018-01-20T14:42:27.108Z,70.50
2018-01-20T14:44:54.627Z,70.40
2018-01-20T14:47:22.188Z,70.90
2018-01-20T14:49:49.713Z,71.20
2018-01-20T14:52:17.233Z,71.40
2018-01-20T14:54:45.582Z,71.80
2018-01-20T14:57:13.110Z,71.50
2018-01-20T14:59:41.315Z,71.50
2018-01-20T15:02:08.863Z,71.40
2018-01-20T15:04:37.135Z,71.60
2018-01-20T15:07:05.022Z,71.50
2018-01-20T15:09:33.327Z,72.60
2018-01-20T15:12:00.829Z,72.60
2018-01-20T15:14:28.344Z,72.30
2018-01-20T15:16:55.985Z,72.40
2018-01-20T15:19:24.289Z,73.20
2018-01-20T15:21:52.633Z,73.00
2018-01-20T15:24:20.153Z,73.20
2018-01-20T15:26:48.605Z,73.20
2018-01-20T15:29:17.724Z,72.50
2018-01-20T15:31:45.226Z,72.40
2018-01-20T15:34:12.733Z,72.70
2018-01-20T15:36:41.092Z,72.20
2018-01-20T15:39:08.629Z,72.20
2018-01-20T15:41:36.141Z,72.20
2018-01-20T15:44:04.417Z,72.30
2018-01-20T15:46:32.722Z,73.00
2018-01-20T15:49:00.215Z,73.00
2018-01-20T15:51:27.707Z,73.20
2018-01-20T15:53:55.216Z,73.30
2018-01-20T15:56:22.727Z,72.80
2018-01-20T15:58:50.240Z,72.80
2018-01-20T16:01:17.730Z,73.10
2018-01-20T16:03:45.258Z,73.20
2018-01-20T16:06:12.753Z,73.60
2018-01-20T16:08:41.077Z,74.00
2018-01-20T16:11:09.342Z,74.40
2018-01-20T16:13:37.593Z,74.70
2018-01-20T16:16:05.101Z,74.80
2018-01-20T16:18:34.088Z,74.80
2018-01-20T16:21:01.589Z,74.80
2018-01-20T16:23:29.089Z,74.50
2018-01-20T16:25:57.464Z,74.70
2018-01-20T16:28:25.079Z,74.70
2018-01-20T16:30:53.373Z,75.20
2018-01-20T16:33:20.912Z,75.20
2018-01-20T16:35:50.976Z,75.50
2018-01-20T16:38:18.483Z,75.40
2018-01-20T16:40:46.013Z,75.60
2018-01-20T16:43:13.512Z,75.90
2018-01-20T16:45:41.035Z,75.80
2018-01-20T16:48:08.536Z,76.00
2018-01-20T16:50:36.049Z,76.10
2018-01-20T16:53:03.550Z,76.70
2018-01-20T16:55:31.066Z,76.10
2018-01-20T16:57:58.567Z,76.80
2018-01-20T17:00:26.110Z,77.00
2018-01-20T17:02:53.623Z,77.20
2018-01-20T17:05:22.058Z,77.60
2018-01-20T17:07:49.575Z,78.20
2018-01-20T17:10:17.859Z,78.30
2018-01-20T17:12:46.119Z,78.60
2018-01-20T17:15:14.788Z,78.50
2018-01-20T17:17:42.294Z,79.30
2018-01-20T17:20:10.579Z,79.00
2018-01-20T17:22:38.899Z,79.30
2018-01-20T17:25:07.113Z,79.30
2018-01-20T17:27:34.613Z,79.40
2018-01-20T17:30:02.893Z,79.60
2018-01-20T17:32:31.177Z,79.40
2018-01-20T17:34:59.475Z,79.30
2018-01-20T17:37:26.972Z,79.30
2018-01-20T17:39:54.555Z,79.30
2018-01-20T17:42:22.081Z,79.00
2018-01-20T17:44:49.606Z,79.10
2018-01-20T17:47:17.884Z,78.10
2018-01-20T17:49:46.153Z,78.10
2018-01-20T17:52:14.434Z,78.30
2018-01-20T17:54:41.936Z,78.20
2018-01-20T17:57:09.437Z,78.60
2018-01-20T17:59:37.400Z,78.70
2018-01-20T18:02:04.923Z,78.80
2018-01-20T18:04:32.418Z,79.20
2018-01-20T18:06:59.977Z,79.50
2018-01-20T18:09:27.484Z,79.80
2018-01-20T18:11:54.994Z,80.10
2018-01-20T18:14:23.383Z,80.40
2018-01-20T18:16:50.893Z,80.40
2018-01-20T18:19:18.433Z,80.60
2018-01-20T18:21:46.027Z,80.90
2018-01-20T18:24:13.514Z,81.30
2018-01-20T18:26:41.040Z,81.90
2018-01-20T18:29:08.590Z,82.00
2018-01-20T18:31:36.081Z,82.00
2018-01-20T18:34:03.767Z,82.10
2018-01-20T18:36:32.147Z,82.60
2018-01-20T18:38:59.769Z,82.60
2018-01-20T18:41:27.374Z,82.80
2018-01-20T18:43:56.451Z,82.90
2018-01-20T18:46:23.965Z,83.10
2018-01-20T18:48:51.514Z,83.30
2018-01-20T18:51:19.805Z,83.50
2018-01-20T18:53:47.325Z,83.50
2018-01-20T18:56:14.840Z,83.90
2018-01-20T18:58:42.659Z,83.90
2018-01-20T19:01:10.938Z,84.10
2018-01-20T19:03:38.457Z,84.10
2018-01-20T19:06:06.123Z,83.80
2018-01-20T19:08:33.622Z,83.90
2018-01-20T19:11:01.327Z,83.90
2018-01-20T19:13:29.596Z,83.80
2018-01-20T19:16:02.975Z,84.00
2018-01-20T19:18:31.302Z,84.10
2018-01-20T19:20:58.852Z,84.00
2018-01-20T19:23:27.123Z,84.10
2018-01-20T19:25:55.400Z,84.20
2018-01-20T19:28:23.700Z,84.30
2018-01-20T19:30:51.964Z,84.30
2018-01-20T19:33:20.271Z,84.50
2018-01-20T19:35:47.890Z,84.30
2018-01-20T19:38:15.398Z,84.50
2018-01-20T19:40:43.880Z,84.50
2018-01-20T19:43:12.196Z,84.50
2018-01-20T19:45:39.732Z,84.50
2018-01-20T19:48:08.119Z,84.70
2018-01-20T19:50:37.355Z,84.90
2018-01-20T19:53:04.882Z,84.90
2018-01-20T19:55:32.411Z,84.80
2018-01-20T19:57:59.937Z,84.80
2018-01-20T20:00:27.456Z,84.90
2018-01-20T20:02:55.720Z,85.00
2018-01-20T20:05:24.082Z,84.70
2018-01-20T20:07:51.639Z,84.70
2018-01-20T20:10:19.183Z,85.30
2018-01-20T20:12:46.967Z,84.80
2018-01-20T20:15:14.521Z,84.90
2018-01-20T20:17:42.980Z,84.80
2018-01-20T20:20:10.500Z,84.80
2018-01-20T20:22:38.157Z,84.90
2018-01-20T20:25:05.670Z,84.80
2018-01-20T20:27:33.178Z,84.30
2018-01-20T20:30:00.673Z,84.30
2018-01-20T20:32:28.952Z,84.00
2018-01-20T20:34:56.460Z,84.00
2018-01-20T20:37:24.774Z,83.80
2018-01-20T20:39:52.646Z,83.30
2018-01-20T20:42:27.052Z,82.90
2018-01-20T20:44:54.565Z,82.30
2018-01-20T20:47:22.860Z,82.20
2018-01-20T20:49:50.458Z,82.10
2018-01-20T20:52:18.732Z,82.00
2018-01-20T20:54:46.251Z,81.90
2018-01-20T20:57:14.642Z,82.10
2018-01-20T20:59:42.909Z,81.60
2018-01-20T21:02:11.135Z,81.60
2018-01-20T21:04:38.649Z,81.40
2018-01-20T21:07:06.431Z,81.10
2018-01-20T21:09:34.785Z,81.70
2018-01-20T21:12:02.350Z,81.70
2018-01-20T21:14:29.886Z,82.10
2018-01-20T21:16:57.521Z,82.40
2018-01-20T21:19:26.498Z,82.30
2018-01-20T21:21:55.003Z,82.40
2018-01-20T21:24:22.866Z,82.40
2018-01-20T21:26:51.201Z,83.00
2018-01-20T21:29:19.976Z,83.00
2018-01-20T21:31:47.602Z,83.20
2018-01-20T21:34:15.111Z,83.00
2018-01-20T21:36:42.618Z,82.70
2018-01-20T21:39:10.126Z,82.80
2018-01-20T21:41:37.676Z,83.30
2018-01-20T21:44:05.167Z,82.90
2018-01-20T21:46:34.802Z,82.80
2018-01-20T21:49:02.288Z,82.80
2018-01-20T21:51:30.571Z,82.70
2018-01-20T21:53:58.878Z,83.00
2018-01-20T21:56:26.373Z,83.00
2018-01-20T21:58:54.100Z,83.00
2018-01-20T22:01:21.622Z,82.70
2018-01-20T22:03:49.167Z,82.90
2018-01-20T22:06:17.006Z,82.80
2018-01-20T22:08:45.473Z,82.80
2018-01-20T22:11:13.853Z,82.60
2018-01-20T22:13:42.139Z,82.70
2018-01-20T22:16:10.602Z,82.60
2018-01-20T22:18:38.864Z,82.20
2018-01-20T22:21:06.456Z,82.20
2018-01-20T22:23:33.928Z,82.00
2018-01-20T22:26:02.193Z,82.00
2018-01-20T22:28:29.692Z,81.80
2018-01-20T22:30:57.209Z,82.20
2018-01-20T22:33:24.718Z,82.50
2018-01-20T22:35:52.239Z,82.40
2018-01-20T22:38:20.546Z,82.70
2018-01-20T22:40:48.816Z,82.70
2018-01-20T22:43:17.089Z,82.90
2018-01-20T22:45:45.396Z,82.90
2018-01-20T22:48:13.683Z,83.50
2018-01-20T22:50:41.957Z,83.50
2018-01-20T22:53:09.464Z,83.90
2018-01-20T22:55:36.969Z,84.00
2018-01-20T22:58:05.385Z,84.40
2018-01-20T23:00:32.883Z,84.40
2018-01-20T23:03:00.406Z,84.50
2018-01-20T23:05:27.955Z,84.60
2018-01-20T23:07:55.468Z,85.50
2018-01-20T23:12:49.872Z,84.70
2018-01-20T23:15:17.518Z,85.00
2018-01-20T23:17:45.010Z,84.70
2018-01-20T23:20:12.543Z,84.80
2018-01-20T23:22:40.801Z,84.60
2018-01-20T23:25:08.309Z,84.60
2018-01-20T23:27:36.524Z,84.60
2018-01-20T23:30:04.782Z,84.10
2018-01-20T23:32:35.964Z,84.60
2018-01-20T23:35:04.341Z,84.50
2018-01-20T23:37:32.608Z,85.20
2018-01-20T23:40:00.098Z,84.60
2018-01-20T23:42:27.610Z,84.60
2018-01-20T23:44:55.210Z,84.70
2018-01-20T23:47:24.482Z,84.50
2018-01-20T23:49:51.980Z,84.50
2018-01-20T23:52:20.247Z,84.20
2018-01-20T23:54:47.762Z,84.20
2018-01-20T23:57:15.267Z,84.40
2018-01-20T23:59:43.153Z,84.40
